Atkinson, NC

12:34 AM EDT on October 23, 2014 (GMT -0400)
KD4JRX HORSE BRANCH RD | Change Station
CLOSE
Current Station
Personal Weather Station
Location: WATHA, NC
Elevation: 58 ft
Nearby Weather Stations

Elev 58 ft 34.61 °N, 77.99 °W | Updated 1 second ago

Clear
Clear
50.0 °F
Feels Like 50.0 °F
N
1.6
Wind Variable Wind from WNW
Gusts 2.2 mph

Today
High -- | Low -- °F
--% Chance of Precip.
Yesterday
High -- | Low -- °F
Precip. -- in
7:24 AM 6:28 PM
Waning Crescent, 1% visible
Pressure 30.04 in
Visibility 10.0 miles
Clouds Clear
Dew Point 46 °F
Humidity 87%
Rainfall 0.00 in
Snow Depth Not available.
UV 0 out of 12
Pollen 3.40 out of 12
Air Quality Not available.
Flu Activity Sporadic
METAR KEYF 230415Z AUTO 30006KT 10SM CLR 12/06 A3004 RMK AO2 T01230058

More Conditions Fewer Conditions

Pressure 30.04 in
Visibility 10.0 miles
Clouds Clear
Dew Point 46 °F
Humidity 87%
Rainfall 0.00 in
Snow Depth Not available.
UV 0 out of 12
Pollen 3.40 out of 12
Air Quality Not available.
Flu Activity Sporadic
METAR KEYF 230415Z AUTO 30006KT 10SM CLR 12/06 A3004 RMK AO2 T01230058

More Conditions Fewer Conditions

10-Day Weather Forecast

Almanac

Astronomy

Oct. 23, 2014 Rise Set
Actual Time 7:24 AM EDT 6:28 PM EDT
Civil Twilight 6:59 AM EDT 6:54 PM EDT
Nautical Twilight 6:29 AM EDT 7:23 PM EDT
Astronomical Twilight 6:00 AM EDT 7:52 PM EDT
Moon 7:03 AM EDT 6:29 PM EDT
Length of Visible Light 11h 54m
Length of Day
11h 03m
Tomorrow will be 1m 59s shorter.
Waning Crescent, 1% of the Moon is Illuminated
Today
Waning Crescent
Oct 23
New
Oct 30
First Quarter
Nov 6
Full
Nov 14
Last Quarter

Today's Extremes

State Highs State Lows

Community

WunderPhotos

Upload Photos

1,764,154 photos uploaded!

Nearby

Snow Depth

Station Depth Elevation
No new snow has been reported.

Earthquake Activity

City Distance Mag. Time & Date
No recent earthquake activity has been reported nearby.
Minimum magnitude displayed is 2.5.

Coastal Water Temperatures

Place Temperature
No Stations Reporting

Nearby Weather Stations